Terminal Aerodrome Forecast
Issued by NWS Wilmington, OH

Current Version | Previous Version | Graphics & Text | Print | Product List | Glossary On
Versions: 1 2 3 4 5 6 7 8 9 10 11 12 13 14 15 16 17 18 19 20 21 22 23 24 25 26 27 28 29
598
FTUS41 KILN 252328
TAFCVG
TAF
KCVG 252328Z 2600/2706 29012KT P6SM OVC025
     FM260300 27008KT P6SM SCT035
     FM260800 24004KT P6SM SCT070
      TEMPO 2608/2612 4SM BR
     FM261300 22007KT P6SM SCT150=

USA.gov is the U.S. government's official web portal to all federal, state and local government web resources and services.